createdAt,value
2019-02-22T00:00:06.886Z,102330.45
2019-02-22T00:02:39.296Z,102339.44
2019-02-22T00:05:09.600Z,102348.20
2019-02-22T00:07:40.087Z,102354.28
2019-02-22T00:10:10.322Z,102356.02
2019-02-22T00:12:40.555Z,102360.36
2019-02-22T00:15:10.912Z,102367.06
2019-02-22T00:17:41.176Z,102373.88
2019-02-22T00:20:11.832Z,102380.06
2019-02-22T00:22:42.077Z,102382.04
2019-02-22T00:25:12.528Z,102399.03
2019-02-22T00:27:43.408Z,102396.50
2019-02-22T00:30:13.746Z,102407.75
2019-02-22T00:32:44.116Z,102419.20
2019-02-22T00:35:14.879Z,102426.77
2019-02-22T00:37:45.167Z,102424.88
2019-02-22T00:40:15.752Z,102443.49
2019-02-22T00:42:46.074Z,102444.57
2019-02-22T00:45:16.312Z,102444.31
2019-02-22T00:47:46.960Z,102451.11
2019-02-22T00:50:17.345Z,102454.00
2019-02-22T00:52:48.276Z,102452.88
2019-02-22T00:55:18.594Z,102456.25
2019-02-22T00:57:48.811Z,102460.66
2019-02-22T01:00:19.114Z,102471.36
2019-02-22T01:02:49.279Z,102474.53
2019-02-22T01:05:19.527Z,102473.82
2019-02-22T01:07:49.769Z,102479.25
2019-02-22T01:10:30.454Z,102486.88
2019-02-22T01:12:52.270Z,102478.14
2019-02-22T01:15:22.896Z,102483.30
2019-02-22T01:17:53.102Z,102491.68
2019-02-22T01:20:23.304Z,102501.39
2019-02-22T01:22:53.636Z,102503.78
2019-02-22T01:25:24.351Z,102503.33
2019-02-22T01:27:54.823Z,102515.39
2019-02-22T01:30:25.528Z,102558.03
2019-02-22T01:32:55.985Z,102561.27
2019-02-22T01:35:26.281Z,102560.11
2019-02-22T01:37:56.732Z,102555.84
2019-02-22T01:40:27.003Z,102566.66
2019-02-22T01:42:57.262Z,102576.66
2019-02-22T01:45:27.697Z,102574.88
2019-02-22T01:47:58.077Z,102575.41
2019-02-22T01:50:28.358Z,102575.20
2019-02-22T01:52:59.163Z,102581.30
2019-02-22T01:55:29.985Z,102587.25
2019-02-22T01:58:00.206Z,102586.92
2019-02-22T02:00:30.449Z,102594.38
2019-02-22T02:03:00.665Z,102595.91
2019-02-22T02:05:30.888Z,102606.66
2019-02-22T02:08:01.213Z,102605.33
2019-02-22T02:10:31.488Z,102612.72
2019-02-22T02:13:01.697Z,102613.21
2019-02-22T02:15:31.965Z,102617.80
2019-02-22T02:18:02.822Z,102621.16
2019-02-22T02:20:33.053Z,102623.50
2019-02-22T02:23:03.534Z,102628.90
2019-02-22T02:25:33.862Z,102637.83
2019-02-22T02:28:04.117Z,102632.63
2019-02-22T02:30:34.348Z,102634.47
2019-02-22T02:33:04.667Z,102637.55
2019-02-22T02:35:35.679Z,102636.98
2019-02-22T02:38:05.960Z,102645.61
2019-02-22T02:40:36.149Z,102637.20
2019-02-22T02:43:06.441Z,102636.33
2019-02-22T02:45:36.672Z,102638.98
2019-02-22T02:48:06.999Z,102645.15
2019-02-22T02:50:37.273Z,102647.10
2019-02-22T02:53:07.554Z,102645.84
2019-02-22T02:55:38.168Z,102651.89
2019-02-22T02:58:08.432Z,102657.67
2019-02-22T03:00:38.837Z,102669.02
2019-02-22T03:03:09.146Z,102664.07
2019-02-22T03:06:17.747Z,102666.27
2019-02-22T03:08:48.069Z,102676.73
2019-02-22T03:11:21.174Z,102683.04
2019-02-22T03:13:50.541Z,102676.73
2019-02-22T03:16:20.829Z,102681.65
2019-02-22T03:18:51.085Z,102680.03
2019-02-22T03:21:21.412Z,102689.40
2019-02-22T03:23:51.753Z,102695.88
2019-02-22T03:26:22.285Z,102706.10
2019-02-22T03:28:52.623Z,102706.22
2019-02-22T03:31:23.352Z,102709.40
2019-02-22T03:33:53.772Z,102724.02
2019-02-22T03:36:26.125Z,102730.92
2019-02-22T03:38:56.465Z,102732.04
2019-02-22T03:41:32.698Z,102732.58
2019-02-22T03:43:59.099Z,102744.48
2019-02-22T03:46:29.448Z,102763.09
2019-02-22T03:48:59.630Z,102776.89
2019-02-22T03:51:30.270Z,102779.06
2019-02-22T03:54:02.320Z,102788.33
2019-02-22T03:56:32.557Z,102793.02
2019-02-22T03:59:02.951Z,102790.94
2019-02-22T04:01:34.374Z,102804.54
2019-02-22T04:04:04.656Z,102810.81
2019-02-22T04:06:35.190Z,102810.42
2019-02-22T04:09:10.195Z,102821.03
2019-02-22T04:11:45.483Z,102832.98
2019-02-22T04:14:12.680Z,102842.21
2019-02-22T04:16:42.966Z,102842.19
2019-02-22T04:19:13.227Z,102846.71
2019-02-22T04:21:43.485Z,102848.80
2019-02-22T04:24:13.737Z,102858.95
2019-02-22T04:26:44.334Z,102856.33
2019-02-22T04:29:14.865Z,102863.43
2019-02-22T04:31:45.121Z,102869.58
2019-02-22T04:34:15.531Z,102871.41
2019-02-22T04:36:46.013Z,102876.33
2019-02-22T04:39:16.261Z,102884.73
2019-02-22T04:41:57.767Z,102891.31
2019-02-22T04:44:18.631Z,102900.11
2019-02-22T04:46:50.062Z,102901.39
2019-02-22T04:49:20.548Z,102907.65
2019-02-22T04:51:51.238Z,102905.04
2019-02-22T04:54:21.497Z,102904.14
2019-02-22T04:56:52.112Z,102911.17
2019-02-22T04:59:25.974Z,102925.69
2019-02-22T05:02:00.725Z,102929.22
2019-02-22T05:04:31.224Z,102933.23
2019-02-22T05:07:01.577Z,102940.73
2019-02-22T05:09:32.049Z,102950.88
2019-02-22T05:12:10.545Z,102953.95
2019-02-22T05:14:34.364Z,102960.12
2019-02-22T05:17:04.688Z,102967.62
2019-02-22T05:19:35.046Z,102975.11
2019-02-22T05:22:05.324Z,102987.92
2019-02-22T05:24:35.584Z,102988.31
2019-02-22T05:27:05.956Z,102986.89
2019-02-22T05:29:36.379Z,102994.86
2019-02-22T05:32:06.809Z,102996.30
2019-02-22T05:34:37.196Z,102994.52
2019-02-22T05:37:07.494Z,102998.52
2019-02-22T05:39:38.238Z,103004.64
2019-02-22T05:42:08.598Z,103008.97
2019-02-22T05:44:38.871Z,103011.64
2019-02-22T05:47:09.163Z,103021.30
2019-02-22T05:49:39.854Z,103024.52
2019-02-22T05:52:10.151Z,103019.63
2019-02-22T05:54:40.474Z,103027.96
2019-02-22T05:57:10.974Z,103031.50
2019-02-22T05:59:41.290Z,103034.23
2019-02-22T06:02:14.334Z,103050.53
2019-02-22T06:04:44.099Z,103056.27
2019-02-22T06:07:14.739Z,103060.69
2019-02-22T06:09:45.013Z,103063.36
2019-02-22T06:12:15.410Z,103078.73
2019-02-22T06:14:45.806Z,103082.74
2019-02-22T06:17:16.067Z,103090.66
2019-02-22T06:19:46.457Z,103093.77
2019-02-22T06:22:29.719Z,103100.33
2019-02-22T06:24:57.195Z,103112.65
2019-02-22T06:27:27.417Z,103125.88
2019-02-22T06:29:58.494Z,103133.38
2019-02-22T06:32:28.754Z,103135.59
2019-02-22T06:34:59.728Z,103141.31
2019-02-22T06:37:30.287Z,103150.97
2019-02-22T06:40:00.549Z,103158.52
2019-02-22T06:42:31.128Z,103169.08
2019-02-22T06:45:01.440Z,103174.81
2019-02-22T06:47:31.832Z,103184.08
2019-02-22T06:50:02.048Z,103182.34
2019-02-22T06:52:32.339Z,103199.48
2019-02-22T06:55:02.992Z,103209.62
2019-02-22T06:57:33.237Z,103199.91
2019-02-22T07:00:03.661Z,103215.34
2019-02-22T07:02:34.282Z,103218.84
2019-02-22T07:05:04.779Z,103219.70
2019-02-22T07:07:35.671Z,103234.25
2019-02-22T07:10:09.952Z,103237.78
2019-02-22T07:12:56.929Z,103237.34
2019-02-22T07:15:29.723Z,103238.23
2019-02-22T07:18:00.673Z,103248.34
2019-02-22T07:20:32.123Z,103249.66
2019-02-22T07:23:02.499Z,103262.44
2019-02-22T07:25:32.812Z,103266.39
2019-02-22T07:28:03.494Z,103280.48
2019-02-22T07:30:33.935Z,103286.66
2019-02-22T07:33:04.194Z,103292.36
2019-02-22T07:35:34.692Z,103301.61
2019-02-22T07:38:05.003Z,103291.92
2019-02-22T07:40:35.427Z,103300.75
2019-02-22T07:43:08.282Z,103307.79
2019-02-22T07:45:37.797Z,103313.95
2019-02-22T07:48:08.189Z,103308.66
2019-02-22T07:50:38.545Z,103318.36
2019-02-22T07:53:08.814Z,103328.92
2019-02-22T07:55:39.108Z,103329.80
2019-02-22T07:58:09.450Z,103333.31
2019-02-22T08:00:39.723Z,103339.04
2019-02-22T08:03:10.102Z,103339.50
2019-02-22T08:05:40.781Z,103355.34
2019-02-22T08:08:11.313Z,103355.80
2019-02-22T08:10:42.085Z,103358.00
2019-02-22T08:13:19.789Z,103363.29
2019-02-22T08:15:44.446Z,103368.14
2019-02-22T08:18:14.699Z,103380.89
2019-02-22T08:20:45.026Z,103381.34
2019-02-22T08:23:15.261Z,103389.70
2019-02-22T08:25:46.591Z,103387.08
2019-02-22T08:28:16.939Z,103391.91
2019-02-22T08:30:47.312Z,103389.26
2019-02-22T08:33:17.772Z,103392.77
2019-02-22T08:35:48.136Z,103392.80
2019-02-22T08:38:18.504Z,103397.20
2019-02-22T08:40:48.955Z,103401.62
2019-02-22T08:43:30.720Z,103400.27
2019-02-22T08:45:51.282Z,103407.34
2019-02-22T08:48:21.606Z,103414.40
2019-02-22T08:50:52.096Z,103411.74
2019-02-22T08:53:22.357Z,103414.84
2019-02-22T08:55:52.994Z,103414.39
2019-02-22T08:58:23.272Z,103416.60
2019-02-22T09:00:53.618Z,103419.66
2019-02-22T09:03:23.929Z,103422.73
2019-02-22T09:05:54.420Z,103431.10
2019-02-22T09:08:25.140Z,103442.12
2019-02-22T09:11:00.568Z,103454.03
2019-02-22T09:13:28.070Z,103455.80
2019-02-22T09:15:58.339Z,103458.02
2019-02-22T09:18:28.645Z,103464.19
2019-02-22T09:20:58.947Z,103472.12
2019-02-22T09:23:29.190Z,103474.74
2019-02-22T09:25:59.491Z,103476.52
2019-02-22T09:28:30.094Z,103484.45
2019-02-22T09:31:00.368Z,103485.78
2019-02-22T09:33:30.974Z,103491.95
2019-02-22T09:36:01.778Z,103493.70
2019-02-22T09:38:32.320Z,103492.38
2019-02-22T09:41:02.650Z,103494.55
2019-02-22T09:43:32.956Z,103497.61
2019-02-22T09:46:03.230Z,103484.87
2019-02-22T09:48:33.517Z,103491.86
2019-02-22T09:51:04.153Z,103485.75
2019-02-22T09:53:34.848Z,103486.63
2019-02-22T09:56:06.243Z,103488.41
2019-02-22T09:58:36.524Z,103483.13
2019-02-22T10:01:07.081Z,103480.05
2019-02-22T10:03:37.641Z,103482.70
2019-02-22T10:06:08.230Z,103487.10
2019-02-22T10:08:38.721Z,103491.52
2019-02-22T10:11:09.008Z,103498.98
2019-02-22T10:13:39.446Z,103504.29
2019-02-22T10:16:09.783Z,103501.64
2019-02-22T10:18:40.157Z,103516.19
2019-02-22T10:21:10.847Z,103513.11
2019-02-22T10:23:42.863Z,103517.96
2019-02-22T10:26:13.172Z,103533.81
2019-02-22T10:28:43.599Z,103527.22
2019-02-22T10:31:13.979Z,103542.19
2019-02-22T10:33:44.280Z,103538.70
2019-02-22T10:36:15.003Z,103547.50
2019-02-22T10:38:45.829Z,103543.97
2019-02-22T10:41:16.150Z,103544.44
2019-02-22T10:43:46.475Z,103548.39
2019-02-22T10:46:17.175Z,103556.33
2019-02-22T10:48:47.421Z,103564.27
2019-02-22T10:51:17.755Z,103556.77
2019-02-22T10:53:48.165Z,103563.84
2019-02-22T10:56:18.451Z,103569.57
2019-02-22T10:58:49.055Z,103574.41
2019-02-22T11:01:19.492Z,103572.23
2019-02-22T11:03:49.878Z,103581.48
2019-02-22T11:06:20.335Z,103588.96
2019-02-22T11:08:51.068Z,103585.02
2019-02-22T11:11:21.607Z,103584.11
2019-02-22T11:13:52.137Z,103578.38
2019-02-22T11:16:22.437Z,103585.39
2019-02-22T11:18:52.865Z,103593.36
2019-02-22T11:21:23.358Z,103594.22
2019-02-22T11:23:53.732Z,103602.17
2019-02-22T11:26:24.192Z,103611.88
2019-02-22T11:28:54.883Z,103617.55
2019-02-22T11:31:25.220Z,103616.61
2019-02-22T11:33:55.753Z,103610.83
2019-02-22T11:36:26.078Z,103600.06
2019-02-22T11:38:56.522Z,103595.70
2019-02-22T11:41:26.893Z,103579.47
2019-02-22T11:43:57.260Z,103585.28
2019-02-22T11:46:27.751Z,103583.33
2019-02-22T11:48:58.052Z,103574.19
2019-02-22T11:51:28.446Z,103573.89
2019-02-22T11:53:59.374Z,103565.37
2019-02-22T11:56:29.782Z,103564.91
2019-02-22T11:59:00.086Z,103564.06
2019-02-22T12:01:30.422Z,103567.41
2019-02-22T12:04:00.740Z,103568.03
2019-02-22T12:06:31.140Z,103567.40
2019-02-22T12:09:01.495Z,103574.48
2019-02-22T12:11:31.819Z,103578.06
2019-02-22T12:14:02.312Z,103570.25
2019-02-22T12:16:32.979Z,103569.41
2019-02-22T12:19:03.326Z,103578.09
2019-02-22T12:21:33.753Z,103590.72
2019-02-22T12:24:04.144Z,103590.14
2019-02-22T12:26:34.480Z,103589.78
2019-02-22T12:29:05.010Z,103594.58
2019-02-22T12:31:35.267Z,103594.89
2019-02-22T12:34:05.747Z,103612.83
2019-02-22T12:36:35.981Z,103611.44
2019-02-22T12:39:07.367Z,103621.66
2019-02-22T12:41:37.761Z,103619.52
2019-02-22T12:44:08.186Z,103624.86
2019-02-22T12:46:38.591Z,103630.23
2019-02-22T12:49:09.088Z,103635.12
2019-02-22T12:51:39.308Z,103644.41
2019-02-22T12:54:09.746Z,103639.98
2019-02-22T12:56:57.793Z,103643.48
2019-02-22T12:59:12.251Z,103639.54
2019-02-22T13:01:42.569Z,103640.03
2019-02-22T13:04:12.892Z,103639.97
2019-02-22T13:06:46.188Z,103637.83
2019-02-22T13:09:16.775Z,103635.14
2019-02-22T13:11:47.085Z,103651.52
2019-02-22T13:14:18.639Z,103643.56
2019-02-22T13:16:48.936Z,103636.54
2019-02-22T13:19:19.162Z,103623.73
2019-02-22T13:21:49.434Z,103611.36
2019-02-22T13:24:19.841Z,103602.09
2019-02-22T13:26:50.128Z,103593.74
2019-02-22T13:29:20.512Z,103607.36
2019-02-22T13:31:53.263Z,103608.20
2019-02-22T13:34:23.058Z,103617.47
2019-02-22T13:36:53.288Z,103624.05
2019-02-22T13:39:23.569Z,103627.53
2019-02-22T13:41:53.832Z,103634.97
2019-02-22T13:44:24.155Z,103635.06
2019-02-22T13:46:55.095Z,103635.52
2019-02-22T13:49:25.500Z,103636.36
2019-02-22T13:51:55.778Z,103637.63
2019-02-22T13:54:26.176Z,103624.05
2019-02-22T13:56:56.759Z,103634.16
2019-02-22T13:59:28.204Z,103645.20
2019-02-22T14:01:58.561Z,103651.88
2019-02-22T14:04:28.867Z,103651.39
2019-02-22T14:06:59.156Z,103649.05
2019-02-22T14:09:29.701Z,103656.16
2019-02-22T14:12:00.065Z,103652.20
2019-02-22T14:14:30.764Z,103660.16
2019-02-22T14:17:01.422Z,103649.08
2019-02-22T14:19:31.701Z,103650.88
2019-02-22T14:22:02.228Z,103644.25
2019-02-22T14:24:32.603Z,103647.80
2019-02-22T14:27:03.100Z,103645.91
2019-02-22T14:29:33.388Z,103640.14
2019-02-22T14:32:03.703Z,103641.55
2019-02-22T14:34:34.001Z,103644.09
2019-02-22T14:37:04.306Z,103651.54
2019-02-22T14:39:34.623Z,103646.40
2019-02-22T14:42:05.147Z,103645.94
2019-02-22T14:44:35.476Z,103652.03
2019-02-22T14:47:06.007Z,103661.38
2019-02-22T14:49:36.427Z,103658.35
2019-02-22T14:52:06.849Z,103668.14
2019-02-22T14:54:37.239Z,103670.23
2019-02-22T14:57:07.706Z,103675.48
2019-02-22T14:59:37.988Z,103674.16
2019-02-22T15:02:08.314Z,103670.64
2019-02-22T15:04:38.649Z,103676.35
2019-02-22T15:07:09.112Z,103685.20
2019-02-22T15:09:39.463Z,103675.16
2019-02-22T15:12:11.832Z,103671.19
2019-02-22T15:14:41.978Z,103684.11
2019-02-22T15:17:29.364Z,103673.02
2019-02-22T15:19:59.645Z,103668.61
2019-02-22T15:22:29.898Z,103668.67
2019-02-22T15:25:00.471Z,103676.23
2019-02-22T15:27:30.851Z,103683.77
2019-02-22T15:30:01.290Z,103679.33
2019-02-22T15:32:32.663Z,103686.42
2019-02-22T15:35:03.234Z,103689.08
2019-02-22T15:37:33.546Z,103678.08
2019-02-22T15:40:04.381Z,103684.67
2019-02-22T15:42:34.813Z,103685.98
2019-02-22T15:45:05.579Z,103686.02
2019-02-22T15:47:36.166Z,103682.94
2019-02-22T15:50:08.953Z,103684.25
2019-02-22T15:52:39.198Z,103685.17
2019-02-22T15:55:09.793Z,103688.23
2019-02-22T15:57:40.113Z,103695.30
2019-02-22T16:00:13.831Z,103694.88
2019-02-22T16:02:44.302Z,103708.13
2019-02-22T16:05:18.827Z,103709.42
2019-02-22T16:07:49.160Z,103702.81
2019-02-22T16:10:19.761Z,103714.30
2019-02-22T16:12:50.265Z,103716.09
2019-02-22T16:15:20.614Z,103715.64
2019-02-22T16:17:51.323Z,103720.95
2019-02-22T16:20:21.698Z,103724.03
2019-02-22T16:22:52.012Z,103725.34
2019-02-22T16:25:22.378Z,103728.86
2019-02-22T16:27:52.731Z,103730.63
2019-02-22T16:30:24.820Z,103733.29
2019-02-22T16:32:55.102Z,103737.69
2019-02-22T16:35:25.464Z,103739.02
2019-02-22T16:37:55.778Z,103735.48
2019-02-22T16:40:26.151Z,103728.41
2019-02-22T16:42:56.693Z,103722.66
2019-02-22T16:45:27.100Z,103731.92
2019-02-22T16:47:58.177Z,103733.25
2019-02-22T16:50:28.670Z,103744.28
2019-02-22T16:52:59.039Z,103741.65
2019-02-22T16:55:29.358Z,103750.02
2019-02-22T16:58:00.107Z,103748.67
2019-02-22T17:00:30.598Z,103754.84
2019-02-22T17:03:01.135Z,103759.22
2019-02-22T17:05:31.497Z,103763.22
2019-02-22T17:08:01.892Z,103761.91
2019-02-22T17:10:32.345Z,103758.37
2019-02-22T17:13:02.762Z,103767.20
2019-02-22T17:15:33.335Z,103769.41
2019-02-22T17:18:03.845Z,103767.60
2019-02-22T17:20:34.274Z,103786.53
2019-02-22T17:23:04.805Z,103791.78
2019-02-22T17:25:35.235Z,103785.69
2019-02-22T17:28:05.739Z,103783.89
2019-02-22T17:30:36.107Z,103790.02
2019-02-22T17:33:06.791Z,103789.14
2019-02-22T17:35:37.447Z,103796.18
2019-02-22T17:38:07.761Z,103792.22
2019-02-22T17:40:38.117Z,103794.42
2019-02-22T17:43:08.524Z,103792.61
2019-02-22T17:45:38.960Z,103792.21
2019-02-22T17:48:09.478Z,103791.28
2019-02-22T17:50:40.220Z,103797.45
2019-02-22T17:53:10.944Z,103799.16
2019-02-22T17:55:41.462Z,103802.63
2019-02-22T17:58:12.570Z,103801.70
2019-02-22T18:00:44.077Z,103802.13
2019-02-22T18:03:14.760Z,103811.25
2019-02-22T18:05:50.618Z,103830.98
2019-02-22T18:08:21.294Z,103840.66
2019-02-22T18:11:04.107Z,103839.27
2019-02-22T18:13:33.649Z,103838.02
2019-02-22T18:16:04.502Z,103826.20
2019-02-22T18:18:36.037Z,103816.86
2019-02-22T18:21:06.995Z,103801.45
2019-02-22T18:23:37.466Z,103801.81
2019-02-22T18:26:08.168Z,103791.32
2019-02-22T18:28:38.520Z,103793.83
2019-02-22T18:31:08.963Z,103791.17
2019-02-22T18:33:45.637Z,103792.94
2019-02-22T18:36:24.798Z,103774.81
2019-02-22T18:38:55.252Z,103777.93
2019-02-22T18:41:25.672Z,103782.26
2019-02-22T18:43:56.350Z,103765.00
2019-02-22T18:46:26.704Z,103772.96
2019-02-22T18:48:57.618Z,103773.38
2019-02-22T18:51:29.433Z,103776.97
2019-02-22T18:54:00.307Z,103773.45
2019-02-22T18:56:30.744Z,103772.56
2019-02-22T18:59:01.207Z,103791.08
2019-02-22T19:01:33.266Z,103780.43
2019-02-22T19:04:04.150Z,103790.97
2019-02-22T19:06:34.509Z,103798.02
2019-02-22T19:09:06.062Z,103792.75
2019-02-22T19:11:36.504Z,103793.00
2019-02-22T19:14:07.496Z,103799.60
2019-02-22T19:16:38.541Z,103811.55
2019-02-22T19:19:09.111Z,103818.95
2019-02-22T19:21:39.731Z,103836.95
2019-02-22T19:24:10.054Z,103842.71
2019-02-22T19:26:40.436Z,103837.98
2019-02-22T19:29:10.908Z,103838.08
2019-02-22T19:31:41.341Z,103832.34
2019-02-22T19:34:12.104Z,103830.59
2019-02-22T19:36:42.497Z,103828.30
2019-02-22T19:39:12.912Z,103831.05
2019-02-22T19:41:43.223Z,103832.78
2019-02-22T19:44:13.631Z,103822.11
2019-02-22T19:46:44.011Z,103831.83
2019-02-22T19:49:14.406Z,103818.72
2019-02-22T19:51:44.757Z,103802.33
2019-02-22T19:54:15.155Z,103809.28
2019-02-22T19:56:45.826Z,103802.13
2019-02-22T19:59:16.196Z,103808.23
2019-02-22T20:01:46.553Z,103812.63
2019-02-22T20:04:16.900Z,103813.45
2019-02-22T20:06:47.316Z,103798.59
2019-02-22T20:09:17.818Z,103793.34
2019-02-22T20:11:50.999Z,103804.75
2019-02-22T20:14:20.634Z,103819.13
2019-02-22T20:16:53.527Z,103808.58
2019-02-22T20:19:23.203Z,103807.30
2019-02-22T20:21:53.690Z,103812.23
2019-02-22T20:24:24.333Z,103809.66
2019-02-22T20:26:54.882Z,103813.88
2019-02-22T20:29:25.352Z,103817.84
2019-02-22T20:31:55.990Z,103832.88
2019-02-22T20:34:26.520Z,103835.11
2019-02-22T20:36:57.299Z,103831.59
2019-02-22T20:39:27.970Z,103832.91
2019-02-22T20:41:58.898Z,103832.44
2019-02-22T20:44:29.685Z,103835.20
2019-02-22T20:47:00.783Z,103840.91
2019-02-22T20:49:31.220Z,103846.08
2019-02-22T20:52:01.640Z,103842.99
2019-02-22T20:54:32.025Z,103845.56
2019-02-22T20:57:02.454Z,103850.22
2019-02-22T20:59:32.781Z,103853.84
2019-02-22T21:02:03.219Z,103854.73
2019-02-22T21:04:34.588Z,103855.52
2019-02-22T21:07:04.834Z,103862.55
2019-02-22T21:09:36.334Z,103873.54
2019-02-22T21:12:06.901Z,103879.73
2019-02-22T21:14:37.261Z,103867.73
2019-02-22T21:17:07.774Z,103865.61
2019-02-22T21:19:38.236Z,103864.46
2019-02-22T21:22:09.071Z,103868.42
2019-02-22T21:24:39.477Z,103873.76
2019-02-22T21:27:11.086Z,103869.92
2019-02-22T21:29:41.484Z,103880.48
2019-02-22T21:32:12.171Z,103876.59
2019-02-22T21:34:44.803Z,103876.19
2019-02-22T21:37:16.910Z,103886.16
2019-02-22T21:40:08.880Z,103883.39
2019-02-22T21:42:26.124Z,103885.56
2019-02-22T21:44:57.417Z,103888.98
2019-02-22T21:47:28.045Z,103892.95
2019-02-22T21:49:58.738Z,103899.03
2019-02-22T21:52:29.249Z,103890.70
2019-02-22T21:55:00.449Z,103892.47
2019-02-22T21:57:30.912Z,103915.53
2019-02-22T22:00:01.370Z,103924.26
2019-02-22T22:02:31.652Z,103932.73
2019-02-22T22:05:02.115Z,103918.73
2019-02-22T22:07:33.020Z,103926.20
2019-02-22T22:10:04.115Z,103924.67
2019-02-22T22:12:34.606Z,103931.16
2019-02-22T22:15:05.188Z,103946.19
2019-02-22T22:17:35.749Z,103947.81
2019-02-22T22:20:06.776Z,103948.34
2019-02-22T22:22:37.683Z,103947.09
2019-02-22T22:25:08.789Z,103955.91
2019-02-22T22:27:39.757Z,103963.39
2019-02-22T22:30:11.238Z,103959.88
2019-02-22T22:32:41.507Z,103952.06
2019-02-22T22:35:11.904Z,103940.22
2019-02-22T22:37:42.403Z,103929.08
2019-02-22T22:40:12.822Z,103915.03
2019-02-22T22:42:43.417Z,103912.73
2019-02-22T22:45:14.360Z,103912.70
2019-02-22T22:47:45.143Z,103904.77
2019-02-22T22:50:15.808Z,103896.39
2019-02-22T22:52:46.253Z,103904.23
2019-02-22T22:55:17.518Z,103900.66
2019-02-22T22:57:48.302Z,103892.72
2019-02-22T23:00:40.283Z,103897.92
2019-02-22T23:03:11.310Z,103906.70
2019-02-22T23:05:43.420Z,103903.56
2019-02-22T23:08:14.239Z,103911.89
2019-02-22T23:10:45.106Z,103915.05
2019-02-22T23:13:15.371Z,103904.48
2019-02-22T23:15:45.832Z,103906.19
2019-02-22T23:18:16.212Z,103897.80
2019-02-22T23:20:46.811Z,103894.20
2019-02-22T23:23:17.336Z,103889.32
2019-02-22T23:25:47.724Z,103887.59
2019-02-22T23:28:18.254Z,103869.09
2019-02-22T23:30:48.986Z,103862.53
2019-02-22T23:33:19.814Z,103859.03
2019-02-22T23:35:50.619Z,103851.91
2019-02-22T23:38:21.413Z,103840.40
2019-02-22T23:40:51.744Z,103831.94
2019-02-22T23:43:22.979Z,103825.33
2019-02-22T23:45:53.797Z,103826.61
2019-02-22T23:48:26.835Z,103823.42
2019-02-22T23:50:57.222Z,103822.56
2019-02-22T23:53:27.935Z,103831.31
2019-02-22T23:55:58.487Z,103847.59
2019-02-22T23:58:29.225Z,103844.11
